Time;durP1;ratioP1;P1;durP2;ratioP2;P2;SDS_P1;SDS_P2;PMS_P1;PMS_P2;Temp;Humidity;BMP_temperature;BMP_pressure;BME280_temperature;BME280_humidity;BME280_pressure;Samples;Min_cycle;Max_cycle;Signal;HPM_P1;HPM_P2
2023/06/19 01:33:29;;;;;;;7.43;6.10;;;;;;;;;;4982929;28;20528;-72
2023/06/19 01:35:57;;;;;;;7.90;7.10;;;;;;;;;;4984665;28;20460;-73
2023/06/19 01:38:27;;;;;;;10.00;7.40;;;;;;;;;;4995396;28;20468;-73
2023/06/19 01:40:58;;;;;;;7.40;6.30;;;;;;;;;;4997846;28;20460;-72
2023/06/19 01:43:26;;;;;;;8.20;7.40;;;;;;;;;;4997964;28;20456;-72
2023/06/19 01:45:55;;;;;;;8.87;7.27;;;;;;;;;;4999351;28;20947;-73
2023/06/19 01:48:31;;;;;;;7.70;6.90;;;;;;;;;;4999493;28;20464;-72
2023/06/19 01:51:10;;;;;;;7.60;6.80;;;;;;;;;;4998723;28;20491;-72
2023/06/19 01:53:37;;;;;;;7.50;6.67;;;;;;;;;;4999573;28;20460;-74
2023/06/19 01:56:08;;;;;;;7.73;6.40;;;;;;;;;;4996311;28;20469;-73
2023/06/19 01:58:36;;;;;;;8.90;7.63;;;;;;;;;;4994430;28;20453;-72
2023/06/19 02:01:04;;;;;;;7.97;7.17;;;;;;;;;;5000221;28;20456;-72
2023/06/19 02:03:34;;;;;;;8.97;7.33;;;;;;;;;;4999404;28;20476;-73
2023/06/19 02:06:09;;;;;;;7.33;6.57;;;;;;;;;;4995177;28;20863;-72
2023/06/19 02:11:45;;;;;;;7.83;6.33;;;;;;;;;;4991799;28;20567;-71
2023/06/19 02:14:12;;;;;;;8.33;7.53;;;;;;;;;;4973799;28;20540;-73
2023/06/19 02:16:43;;;;;;;7.90;7.10;;;;;;;;;;4976529;28;20820;-72
2023/06/19 02:21:52;;;;;;;7.20;6.50;;;;;;;;;;4991704;28;20448;-73
2023/06/19 02:24:20;;;;;;;6.90;6.20;;;;;;;;;;4981699;28;20448;-73
2023/06/19 02:29:55;;;;;;;7.37;6.67;;;;;;;;;;5003616;23;20480;-95
2023/06/19 02:54:24;;;;;;;8.40;7.50;;;;;;;;;;4830742;26;20841;-73
2023/06/19 02:56:58;;;;;;;10.00;8.17;;;;;;;;;;5000850;28;21005;-73
2023/06/19 02:59:29;;;;;;;7.10;6.40;;;;;;;;;;5001874;28;20840;-73
2023/06/19 03:01:57;;;;;;;8.90;7.70;;;;;;;;;;5002259;28;20452;-73
2023/06/19 03:04:24;;;;;;;8.50;7.60;;;;;;;;;;5001769;28;20522;-74
2023/06/19 03:06:57;;;;;;;7.90;6.80;;;;;;;;;;5001036;28;20843;-73
2023/06/19 03:12:09;;;;;;;10.40;7.87;;;;;;;;;;4996587;28;20602;-74
2023/06/19 03:14:37;;;;;;;8.90;7.67;;;;;;;;;;5000817;28;20452;-72
2023/06/19 03:17:05;;;;;;;7.83;7.10;;;;;;;;;;4999910;28;20464;-73
2023/06/19 03:19:38;;;;;;;8.37;7.53;;;;;;;;;;4999149;28;20459;-73
2023/06/19 03:22:06;;;;;;;8.83;7.00;;;;;;;;;;4997401;28;20554;-73
2023/06/19 03:24:37;;;;;;;10.30;7.47;;;;;;;;;;4997765;28;20448;-73
2023/06/19 03:29:41;;;;;;;8.40;7.23;;;;;;;;;;5356229;22;20476;-73
2023/06/19 03:32:10;;;;;;;7.93;7.03;;;;;;;;;;4980977;28;20599;-73
2023/06/19 03:34:38;;;;;;;9.90;7.77;;;;;;;;;;4979232;28;20468;-73
2023/06/19 03:37:09;;;;;;;7.97;7.20;;;;;;;;;;4999336;28;20460;-73
2023/06/19 03:39:38;;;;;;;8.20;7.40;;;;;;;;;;4998889;28;20485;-73
2023/06/19 03:42:06;;;;;;;8.77;7.97;;;;;;;;;;5000631;28;20464;-73
2023/06/19 03:44:36;;;;;;;7.83;6.77;;;;;;;;;;5000974;28;20877;-73
2023/06/19 03:47:04;;;;;;;7.90;7.10;;;;;;;;;;5001681;28;20838;-73
2023/06/19 03:49:32;;;;;;;8.40;7.60;;;;;;;;;;5001764;28;21071;-73
2023/06/19 03:52:00;;;;;;;7.93;7.13;;;;;;;;;;5002223;28;20492;-73
2023/06/19 03:54:27;;;;;;;7.00;6.30;;;;;;;;;;5000969;28;20460;-73
2023/06/19 03:56:57;;;;;;;8.90;7.43;;;;;;;;;;5000882;28;20544;-74
2023/06/19 03:59:25;;;;;;;8.20;7.40;;;;;;;;;;5001031;28;20572;-73
2023/06/19 04:01:53;;;;;;;9.37;8.37;;;;;;;;;;4990253;28;20468;-73
2023/06/19 04:04:21;;;;;;;7.83;7.07;;;;;;;;;;4980509;28;20453;-74
2023/06/19 04:06:48;;;;;;;11.27;7.70;;;;;;;;;;4982191;28;20454;-74
2023/06/19 04:09:16;;;;;;;9.30;7.33;;;;;;;;;;4984114;28;20461;-73
2023/06/19 04:11:44;;;;;;;9.70;8.10;;;;;;;;;;4980730;28;20489;-72
2023/06/19 04:14:14;;;;;;;8.10;7.30;;;;;;;;;;4979822;28;20461;-73
2023/06/19 04:16:41;;;;;;;8.17;7.37;;;;;;;;;;4985981;28;20460;-73
2023/06/19 04:19:12;;;;;;;8.33;7.50;;;;;;;;;;4997882;28;20468;-72
2023/06/19 04:21:44;;;;;;;7.87;7.07;;;;;;;;;;4995027;28;20527;-72
2023/06/19 04:24:12;;;;;;;9.53;7.00;;;;;;;;;;4977586;28;20463;-74
2023/06/19 06:31:53;;;;;;;10.10;9.20;;;;;;;;;;5415494;23;20496;-82
2023/06/19 06:34:21;;;;;;;8.73;7.83;;;;;;;;;;5008837;28;20527;-82
2023/06/19 06:36:49;;;;;;;9.70;8.27;;;;;;;;;;5007669;28;20428;-80
2023/06/19 06:39:16;;;;;;;9.97;8.97;;;;;;;;;;5006766;28;20463;-82
2023/06/19 06:41:44;;;;;;;11.43;9.10;;;;;;;;;;5002280;28;20535;-80
2023/06/19 06:44:12;;;;;;;9.70;8.70;;;;;;;;;;4991365;28;20484;-80
2023/06/19 06:46:39;;;;;;;13.70;9.90;;;;;;;;;;4992756;28;20464;-81
2023/06/19 06:49:08;;;;;;;8.47;7.53;;;;;;;;;;5007067;28;20448;-82
2023/06/19 06:51:46;;;;;;;9.80;8.80;;;;;;;;;;4994503;28;20488;-82
2023/06/19 06:54:14;;;;;;;8.90;8.00;;;;;;;;;;5003298;28;20451;-81
2023/06/19 06:56:41;;;;;;;9.60;8.70;;;;;;;;;;5000176;28;20516;-81
2023/06/19 06:59:09;;;;;;;10.70;9.37;;;;;;;;;;4990621;28;20453;-83
2023/06/19 07:01:37;;;;;;;9.10;7.80;;;;;;;;;;4989112;28;20492;-82
2023/06/19 07:04:05;;;;;;;10.67;9.47;;;;;;;;;;4987257;28;20453;-79
2023/06/19 07:15:38;;;;;;;11.40;9.00;;;;;;;;;;4995776;28;20436;-71
2023/06/19 07:18:20;;;;;;;17.10;9.10;;;;;;;;;;4996310;28;20480;-71
2023/06/19 07:21:00;;;;;;;11.87;8.67;;;;;;;;;;4994814;28;20461;-73
2023/06/19 07:23:42;;;;;;;10.07;9.07;;;;;;;;;;4973171;28;20485;-73
2023/06/19 07:34:23;;;;;;;18.00;11.50;;;;;;;;;;4978308;28;20496;-72
2023/06/19 07:39:39;;;;;;;9.00;8.10;;;;;;;;;;4998995;28;20586;-73
2023/06/19 07:42:19;;;;;;;9.63;8.03;;;;;;;;;;4993178;28;20467;-72
2023/06/19 07:44:57;;;;;;;10.00;8.67;;;;;;;;;;5008218;28;20448;-73
2023/06/19 07:47:55;;;;;;;;;;;;;;;;;;;;;
2023/06/19 07:53:35;;;;;;;9.03;8.13;;;;;;;;;;4987032;28;20635;-73
2023/06/19 07:59:08;;;;;;;9.90;8.90;;;;;;;;;;4996097;28;20459;-72
2023/06/19 08:05:15;;;;;;;9.90;8.30;;;;;;;;;;4940728;28;20587;-73
2023/06/19 08:08:03;;;;;;;10.70;8.53;;;;;;;;;;4950692;28;20767;-72
2023/06/19 08:10:56;;;;;;;9.33;8.43;;;;;;;;;;4965952;28;20461;-74
2023/06/19 08:13:34;;;;;;;10.80;9.47;;;;;;;;;;4961662;28;20561;-74
2023/06/19 08:18:47;;;;;;;10.17;8.63;;;;;;;;;;4970969;28;20449;-73
2023/06/19 08:32:13;;;;;;;9.30;8.30;;;;;;;;;;5660894;23;20563;-83
2023/06/19 08:34:41;;;;;;;10.23;9.10;;;;;;;;;;5003806;28;20474;-82
2023/06/19 08:37:12;;;;;;;11.83;8.67;;;;;;;;;;5000132;28;20456;-82
2023/06/19 08:39:40;;;;;;;9.40;8.40;;;;;;;;;;4997043;28;20453;-81
2023/06/19 08:42:08;;;;;;;11.37;8.73;;;;;;;;;;4988385;28;20529;-82
2023/06/19 08:44:39;;;;;;;10.00;8.37;;;;;;;;;;4996683;28;20479;-81
2023/06/19 08:47:08;;;;;;;10.50;8.90;;;;;;;;;;4997180;28;20516;-79
2023/06/19 08:49:41;;;;;;;9.77;8.77;;;;;;;;;;4994772;28;21015;-82
2023/06/19 08:52:10;;;;;;;9.77;8.87;;;;;;;;;;4997262;28;20499;-82
2023/06/19 08:54:43;;;;;;;9.60;8.57;;;;;;;;;;4994587;28;20495;-81
2023/06/19 08:57:16;;;;;;;8.90;8.00;;;;;;;;;;4996507;28;20468;-83
2023/06/19 08:59:54;;;;;;;9.30;8.33;;;;;;;;;;4977570;28;20597;-80
2023/06/19 09:02:27;;;;;;;11.70;8.30;;;;;;;;;;4985183;28;20599;-83
2023/06/19 09:05:22;;;;;;;11.40;8.97;;;;;;;;;;4967600;28;20449;-81
2023/06/19 09:08:09;;;;;;;11.43;10.23;;;;;;;;;;4966238;28;20450;-79
2023/06/19 09:10:40;;;;;;;10.93;9.43;;;;;;;;;;4970712;28;20542;-79
2023/06/19 09:13:15;;;;;;;10.57;9.47;;;;;;;;;;4981139;28;20529;-80
2023/06/19 09:15:43;;;;;;;11.50;9.23;;;;;;;;;;4985251;28;20513;-79
2023/06/19 09:18:13;;;;;;;10.10;8.97;;;;;;;;;;4987948;28;20478;-79
2023/06/19 09:20:57;;;;;;;10.70;9.63;;;;;;;;;;4979184;28;20455;-80
2023/06/19 09:23:34;;;;;;;10.00;9.00;;;;;;;;;;4987645;28;20511;-80
2023/06/19 11:29:22;;;;;;;7.57;6.87;;;;;;;;;;5664807;23;20477;-81
2023/06/19 11:32:31;;;;;;;8.80;7.90;;;;;;;;;;4972114;28;20548;-79
2023/06/19 11:34:59;;;;;;;9.60;7.90;;;;;;;;;;4968860;28;20469;-80
2023/06/19 11:37:37;;;;;;;8.80;7.90;;;;;;;;;;4978726;28;20560;-78
2023/06/19 12:26:55;;;;;;;11.70;7.40;;;;;;;;;;4952889;23;20892;-83
2023/06/19 12:29:31;;;;;;;7.90;6.63;;;;;;;;;;4986510;23;20483;-82
2023/06/19 12:32:03;;;;;;;8.10;7.30;;;;;;;;;;4983953;28;20478;-83
2023/06/19 12:34:40;;;;;;;9.23;7.70;;;;;;;;;;4987046;28;20477;-82
2023/06/19 12:37:08;;;;;;;8.67;7.30;;;;;;;;;;4990214;28;22558;-80
2023/06/19 12:39:44;;;;;;;11.23;6.97;;;;;;;;;;5016946;28;20476;-82
2023/06/19 12:42:19;;;;;;;8.37;7.47;;;;;;;;;;5004402;28;20468;-80
2023/06/19 12:44:47;;;;;;;8.53;7.30;;;;;;;;;;5010580;28;20502;-83
2023/06/19 12:47:16;;;;;;;7.73;6.97;;;;;;;;;;5008671;28;20532;-81
2023/06/19 12:49:57;;;;;;;8.33;6.83;;;;;;;;;;4988006;28;20468;-80
2023/06/19 12:52:30;;;;;;;7.37;6.67;;;;;;;;;;5003882;28;20503;-81
2023/06/19 12:55:02;;;;;;;7.23;6.53;;;;;;;;;;5006148;28;20562;-81
2023/06/19 12:57:32;;;;;;;7.80;7.03;;;;;;;;;;5003432;28;20476;-80
2023/06/19 13:00:01;;;;;;;7.87;7.07;;;;;;;;;;5005840;28;20523;-82
2023/06/19 13:02:29;;;;;;;7.60;6.90;;;;;;;;;;5008340;28;20700;-82
2023/06/19 13:08:24;;;;;;;9.53;7.07;;;;;;;;;;4997168;28;20468;-80
2023/06/19 13:10:51;;;;;;;7.90;5.67;;;;;;;;;;5003281;28;20746;-81
2023/06/19 13:13:24;;;;;;;9.03;6.10;;;;;;;;;;5006667;28;20492;-79
2023/06/19 13:15:54;;;;;;;7.20;6.47;;;;;;;;;;5009556;28;20453;-81
2023/06/19 13:18:23;;;;;;;6.53;5.93;;;;;;;;;;5001343;28;20480;-82
2023/06/19 13:20:54;;;;;;;6.00;5.40;;;;;;;;;;4996850;28;20441;-82
2023/06/19 13:23:22;;;;;;;7.17;5.53;;;;;;;;;;5003600;28;20524;-81
2023/06/19 13:26:06;;;;;;;6.30;5.70;;;;;;;;;;5005347;28;20464;-81
2023/06/19 13:28:36;;;;;;;6.87;5.27;;;;;;;;;;4999703;28;20487;-81
2023/06/19 13:31:05;;;;;;;5.97;4.93;;;;;;;;;;5003698;28;20464;-82
2023/06/19 13:33:36;;;;;;;5.00;4.37;;;;;;;;;;4995622;28;20528;-82
2023/06/19 13:36:06;;;;;;;7.50;5.00;;;;;;;;;;4993606;28;20507;-80
2023/06/19 13:39:24;;;;;;;9.53;7.97;;;;;;;;;;5006261;28;20500;-80
2023/06/19 13:42:00;;;;;;;7.63;4.57;;;;;;;;;;4995936;28;20483;-82
2023/06/19 13:44:32;;;;;;;6.00;4.67;;;;;;;;;;4993457;28;20568;-80
2023/06/19 13:47:02;;;;;;;4.93;4.43;;;;;;;;;;4993585;28;20457;-81
2023/06/19 13:49:30;;;;;;;7.37;4.37;;;;;;;;;;4997998;28;20469;-80
2023/06/19 13:51:58;;;;;;;4.90;4.03;;;;;;;;;;4997701;28;20492;-83
2023/06/19 13:54:30;;;;;;;7.60;4.70;;;;;;;;;;4988415;28;20532;-80
2023/06/19 13:56:59;;;;;;;4.10;3.70;;;;;;;;;;5003722;28;20485;-80
2023/06/19 13:59:27;;;;;;;4.67;3.57;;;;;;;;;;5003478;28;20646;-82
2023/06/19 14:01:59;;;;;;;5.50;3.23;;;;;;;;;;4989634;28;20451;-81
2023/06/19 14:04:28;;;;;;;4.23;3.10;;;;;;;;;;5004305;28;20441;-81
2023/06/19 14:07:02;;;;;;;5.23;3.50;;;;;;;;;;5004054;28;20459;-79
2023/06/19 14:09:33;;;;;;;6.80;3.30;;;;;;;;;;4987638;28;20562;-81
2023/06/19 14:12:18;;;;;;;7.03;2.80;;;;;;;;;;4996020;28;20903;-81
2023/06/19 14:14:49;;;;;;;3.30;2.47;;;;;;;;;;4996454;28;20464;-80
2023/06/19 14:17:18;;;;;;;7.23;3.50;;;;;;;;;;4997526;28;20475;-81
2023/06/19 14:19:45;;;;;;;4.10;3.27;;;;;;;;;;4989215;28;20492;-82
2023/06/19 14:22:13;;;;;;;3.27;2.37;;;;;;;;;;4997235;28;20562;-82
2023/06/19 14:24:41;;;;;;;2.90;2.33;;;;;;;;;;4996465;28;20470;-83
2023/06/19 18:56:17;;;;;;;7.30;6.53;;;;;;;;;;4797853;26;20496;-74
2023/06/19 18:58:45;;;;;;;5.70;5.10;;;;;;;;;;4976405;28;20772;-74
2023/06/19 19:01:14;;;;;;;6.10;5.50;;;;;;;;;;4977308;28;20457;-74
2023/06/19 19:03:47;;;;;;;6.37;5.73;;;;;;;;;;4978974;28;20457;-74
2023/06/19 19:06:17;;;;;;;6.80;5.43;;;;;;;;;;4978783;28;20548;-75
2023/06/19 19:08:55;;;;;;;7.07;5.70;;;;;;;;;;4975368;28;20850;-75
2023/06/19 19:11:26;;;;;;;6.77;6.00;;;;;;;;;;4965878;28;20458;-74
2023/06/19 19:13:54;;;;;;;7.03;6.33;;;;;;;;;;4958131;28;20662;-74
2023/06/19 19:16:37;;;;;;;6.23;5.63;;;;;;;;;;4957480;29;20454;-74
2023/06/19 19:22:00;;;;;;;7.13;6.40;;;;;;;;;;4985015;28;20507;-74
2023/06/19 19:24:32;;;;;;;7.97;6.17;;;;;;;;;;4993277;28;20452;-76
2023/06/19 20:28:12;;;;;;;7.73;5.57;;;;;;;;;;4973102;23;20938;-81
2023/06/19 20:30:39;;;;;;;7.90;6.50;;;;;;;;;;4984188;28;20499;-83
2023/06/19 20:33:14;;;;;;;10.17;6.87;;;;;;;;;;4989005;28;20489;-83
2023/06/19 20:35:42;;;;;;;9.67;6.63;;;;;;;;;;4984193;28;20437;-82
2023/06/19 20:38:09;;;;;;;7.50;6.30;;;;;;;;;;4987338;28;20481;-82
2023/06/19 20:40:36;;;;;;;7.80;6.23;;;;;;;;;;4988070;28;20461;-84
2023/06/19 20:43:04;;;;;;;8.17;7.23;;;;;;;;;;4986301;28;20478;-84
2023/06/19 20:45:33;;;;;;;9.80;6.23;;;;;;;;;;4988224;28;20476;-81
2023/06/19 20:48:04;;;;;;;7.73;6.70;;;;;;;;;;4987847;28;20780;-82
2023/06/19 20:55:56;;;;;;;8.80;7.20;;;;;;;;;;4311144;26;20489;-72
2023/06/19 20:58:26;;;;;;;9.40;6.67;;;;;;;;;;4969065;28;20765;-73
2023/06/19 21:00:58;;;;;;;7.13;6.43;;;;;;;;;;4957461;28;20484;-72
2023/06/19 21:03:32;;;;;;;6.93;6.23;;;;;;;;;;4965924;28;20734;-72
2023/06/19 21:05:59;;;;;;;7.20;6.20;;;;;;;;;;4978517;28;20468;-71
2023/06/19 21:11:36;;;;;;;7.03;6.43;;;;;;;;;;4955909;29;20488;-72
2023/06/19 21:14:07;;;;;;;7.53;6.80;;;;;;;;;;4958474;28;20588;-72
2023/06/19 21:16:40;;;;;;;7.97;6.50;;;;;;;;;;4971961;28;20457;-72
2023/06/19 21:19:11;;;;;;;7.23;6.53;;;;;;;;;;4970214;28;20454;-71
2023/06/19 21:21:39;;;;;;;7.80;7.00;;;;;;;;;;4955047;29;20553;-71
2023/06/19 21:24:08;;;;;;;9.30;7.57;;;;;;;;;;4953653;29;20890;-71
2023/06/19 21:53:20;;;;;;;8.37;7.50;;;;;;;;;;1428272;26;20602;-73
2023/06/19 21:55:47;;;;;;;6.80;6.03;;;;;;;;;;4933494;29;20542;-72
2023/06/19 21:58:15;;;;;;;7.60;6.47;;;;;;;;;;4936036;29;20443;-72
2023/06/19 22:00:53;;;;;;;7.03;6.33;;;;;;;;;;4934711;29;20455;-72
2023/06/19 22:06:09;;;;;;;11.43;6.83;;;;;;;;;;4964926;28;20922;-72
2023/06/19 22:08:59;;;;;;;8.67;6.40;;;;;;;;;;4972909;28;20456;-71
2023/06/19 22:11:27;;;;;;;9.43;6.10;;;;;;;;;;4973278;28;20808;-73
2023/06/19 22:13:56;;;;;;;7.77;5.53;;;;;;;;;;4974872;28;20917;-72
2023/06/19 22:16:31;;;;;;;8.50;5.20;;;;;;;;;;4966143;28;20461;-72
2023/06/19 22:19:00;;;;;;;8.50;6.60;;;;;;;;;;4956029;28;20731;-71
2023/06/19 22:21:30;;;;;;;6.73;5.17;;;;;;;;;;4962701;28;20441;-71
2023/06/19 22:23:59;;;;;;;7.60;6.77;;;;;;;;;;4963082;28;20449;-71
2023/06/19 22:28:58;;;;;;;8.60;5.77;;;;;;;;;;5005897;28;20930;-83
2023/06/19 22:31:25;;;;;;;7.60;6.90;;;;;;;;;;5005645;28;20983;-82
2023/06/19 22:33:53;;;;;;;7.67;6.63;;;;;;;;;;5001095;28;20535;-83
2023/06/19 22:36:22;;;;;;;8.87;6.37;;;;;;;;;;5006625;28;20491;-84
2023/06/19 22:38:49;;;;;;;13.03;6.67;;;;;;;;;;5002636;28;20471;-83
2023/06/19 22:41:18;;;;;;;8.63;6.07;;;;;;;;;;5003289;28;20772;-81
2023/06/19 22:43:45;;;;;;;7.07;6.37;;;;;;;;;;5002346;28;20464;-81
2023/06/19 22:46:13;;;;;;;7.97;5.93;;;;;;;;;;5005374;28;20531;-81
2023/06/19 22:48:42;;;;;;;8.30;7.10;;;;;;;;;;5007503;28;20452;-80
2023/06/19 22:56:14;;;;;;;7.60;6.50;;;;;;;;;;4974846;28;20485;-73
2023/06/19 22:58:43;;;;;;;10.03;6.53;;;;;;;;;;4975131;28;20568;-72
2023/06/19 23:01:12;;;;;;;8.80;6.30;;;;;;;;;;4974760;28;20896;-72
2023/06/19 23:03:42;;;;;;;7.40;6.70;;;;;;;;;;4976811;28;20462;-72
2023/06/19 23:06:10;;;;;;;7.20;5.93;;;;;;;;;;4980325;28;20759;-72
2023/06/19 23:08:39;;;;;;;8.17;6.53;;;;;;;;;;4976666;28;20504;-72
2023/06/19 23:11:07;;;;;;;8.53;6.10;;;;;;;;;;4966999;28;20536;-72
2023/06/19 23:13:38;;;;;;;9.13;6.07;;;;;;;;;;4961945;28;20486;-71
2023/06/19 23:16:13;;;;;;;10.10;6.73;;;;;;;;;;4960485;29;20462;-70
2023/06/19 23:18:41;;;;;;;8.80;6.20;;;;;;;;;;4959973;29;21010;-72
2023/06/19 23:21:09;;;;;;;9.40;6.80;;;;;;;;;;4958413;29;20675;-70
2023/06/19 23:23:39;;;;;;;9.07;6.17;;;;;;;;;;4957523;29;20454;-71
2023/06/19 23:28:56;;;;;;;16.17;7.20;;;;;;;;;;3304232;26;20476;-82
2023/06/19 23:31:25;;;;;;;9.20;6.60;;;;;;;;;;4949044;29;20510;-82
2023/06/19 23:34:01;;;;;;;7.20;6.47;;;;;;;;;;4947394;29;20570;-82
2023/06/19 23:36:30;;;;;;;8.70;7.10;;;;;;;;;;4948130;29;20458;-79
2023/06/19 23:38:57;;;;;;;8.53;7.07;;;;;;;;;;4946124;29;20815;-82
2023/06/19 23:41:24;;;;;;;7.10;6.13;;;;;;;;;;4945807;29;20543;-82
2023/06/19 23:43:52;;;;;;;9.70;6.90;;;;;;;;;;4946563;29;20459;-82
2023/06/19 23:46:20;;;;;;;10.33;6.67;;;;;;;;;;4947926;29;20459;-81
2023/06/19 23:48:48;;;;;;;12.03;7.00;;;;;;;;;;4946966;29;20874;-82
2023/06/19 23:56:20;;;;;;;10.07;8.47;;;;;;;;;;4959601;29;20964;-71
2023/06/19 23:58:49;;;;;;;7.93;6.23;;;;;;;;;;4960889;29;20488;-72
